x

Sand Key, Fl (sanf1) Weather Station

3:50pm - Tue 2nd Sep 2014 All times are CDT. -4 hours from GMT.

  • Wind
    7mph, 20mph gusts
  • Air Temp 82°f
  • Sea Pressure 1016.6mb
  • Sand Key, Fl
  • Sand Key, Fl

More Historic Weather Station data

Upgrade to MSW Pro to gain access to the past 30 days of data for over 8000 Wavebouys and Weather Stations around the globe.

Join Pro

Comparision Forecast

View Surf forecast
   
Tue 09/02 3:50pm 7 20 mph 1016.6mb 82f
2:50pm 5 6 mph 1016.7mb 82f
1:50pm 7 10 mph 1017.2mb 81f
12:50pm 10 13 mph 1017.4mb 84f
11:50am 11 14 mph 1017.6mb 85f
10:50am 14 16 mph 1017.5mb 84f
9:50am 17 21 mph 1017.1mb 84f
8:50am 18 21 mph 1016.9mb 83f
7:50am 15 18 mph 1016.2mb 84f
6:50am 13 15 mph 1015.8mb 84f
5:50am 14 18 mph 1015.3mb 84f
4:50am 15 18 mph 1015.6mb 84f
3:50am 15 17 mph 1016mb 83f
2:50am 17 22 mph 1016.6mb 83f
1:50am 11 15 mph 1017.2mb 84f
12:50am 14 16 mph 1017.9mb 85f
Mon 09/01 11:50pm 15 17 mph 1017.6mb 85f
10:50pm 14 16 mph 1017.7mb 85f
9:50pm 15 16 mph 1017.1mb 85f
8:50pm 14 16 mph 1017mb 85f
7:50pm 13 15 mph 1016.5mb 85f
6:50pm 9 11 mph 1016.4mb 85f
5:50pm 9 11 mph 1016.1mb 85f
4:50pm 11 13 mph 1016.1mb 85f
3:50pm 11 15 mph 1016.7mb 85f
2:50pm 15 17 mph 1017.6mb 85f
1:50pm 15 18 mph 1018mb 85f
12:50pm 16 18 mph 1018.3mb 85f
11:50am 17 21 mph 1018.7mb 85f
10:50am 15 18 mph 1018.5mb 84f
9:50am 17 20 mph 1018mb 84f
8:50am 20 22 mph 1017.6mb 84f
7:50am 20 23 mph 1017.1mb 84f
6:50am 15 20 mph 1016.7mb 84f
5:50am 18 21 mph 1016.2mb 85f
4:50am 18 22 mph 1016.1mb 85f
3:50am 25 39 mph 1016.2mb 81f
2:50am 17 20 mph 1016.8mb 85f
1:50am 20 22 mph 1017.1mb 85f
12:50am 16 20 mph 1017.7mb 85f
Sun 08/31 11:50pm 20 22 mph 1017.5mb 85f
10:50pm 20 23 mph 1017.3mb 85f
9:50pm 20 23 mph 1017.3mb 85f
8:50pm 18 22 mph 1017.3mb 84f
7:50pm 20 23 mph 1016.7mb 84f
6:50pm 17 21 mph 1016.8mb 84f
5:50pm 9 13 mph 1017.2mb 83f
4:50pm 24 31 mph 1016.8mb 78f
3:50pm 16 23 mph 1017.5mb 83f
2:50pm 21 23 mph 1017.7mb 85f
1:50pm 24 26 mph 1018.2mb 85f
12:50pm 22 28 mph 1018.6mb 85f
11:50am 21 23 mph 1018.5mb 85f
10:50am 23 25 mph 1018.3mb 85f
9:50am 21 25 mph 1018.1mb 85f
8:50am 21 23 mph 1017.6mb 85f
7:50am 16 20 mph 1017.3mb 84f
6:50am 18 20 mph 1017.3mb 84f
5:50am 17 21 mph 1017mb 84f
4:50am 15 17 mph 1017.2mb 84f
3:50am 16 18 mph 1017.4mb 84f
2:50am 16 20 mph 1017.9mb 82f
1:50am 16 18 mph 1018mb 83f
12:50am 24 28 mph 1018mb 85f
Sat 08/30 11:50pm 17 21 mph 1018mb 85f
10:50pm 28 31 mph 1017.3mb 85f
9:50pm 26 30 mph 1017.2mb 86f
8:50pm 24 28 mph 1017mb 86f
7:50pm 23 28 mph 1016.5mb 86f
6:50pm 24 29 mph 1016.1mb 86f
5:50pm 22 25 mph 1015.6mb 86f
4:50pm 23 26 mph 1015.7mb 86f
3:50pm 23 26 mph 1016.3mb 86f
2:50pm 23 26 mph 1016.9mb 86f
1:50pm 23 28 mph 1017.5mb 86f
12:50pm 25 29 mph 1017.8mb 86f
11:50am 23 26 mph 1018.4mb 86f
10:50am 23 25 mph 1018.4mb 86f
9:50am 22 25 mph 1017.9mb 86f
8:50am 21 24 mph 1017.8mb 85f
7:50am 22 24 mph 1017.5mb 86f
6:50am 22 25 mph 1017.1mb 85f
5:50am 23 25 mph 1016.8mb 85f
4:50am 23 25 mph 1016.5mb 85f
3:50am 18 23 mph 1016.8mb 85f
2:50am 20 22 mph 1017.4mb 86f
1:50am 21 23 mph 1018mb 86f
12:50am 22 24 mph 1018.2mb 86f
Fri 08/29 11:50pm 21 23 mph 1018.2mb 86f
10:50pm 22 24 mph 1017.6mb 86f
9:50pm 21 23 mph 1017.2mb 86f
8:50pm 20 23 mph 1016.7mb 86f